sensor_id;sensor_type;location;lat;lon;timestamp;temperature;humidity
7796;DHT22;3942;51.518;6.912;2022-11-23T00:03:17;9.70;99.90
7796;DHT22;3942;51.518;6.912;2022-11-23T00:08:21;9.70;99.90
7796;DHT22;3942;51.518;6.912;2022-11-23T00:13:23;9.70;99.90
7796;DHT22;3942;51.518;6.912;2022-11-23T00:18:24;9.80;99.90
7796;DHT22;3942;51.518;6.912;2022-11-23T00:23:28;9.50;99.90
7796;DHT22;3942;51.518;6.912;2022-11-23T00:28:30;9.80;99.90
7796;DHT22;3942;51.518;6.912;2022-11-23T00:33:32;9.70;99.90
7796;DHT22;3942;51.518;6.912;2022-11-23T00:38:36;9.70;99.90
7796;DHT22;3942;51.518;6.912;2022-11-23T00:43:38;9.70;99.90
7796;DHT22;3942;51.518;6.912;2022-11-23T00:48:40;9.80;99.90
7796;DHT22;3942;51.518;6.912;2022-11-23T00:53:43;9.80;99.90
7796;DHT22;3942;51.518;6.912;2022-11-23T00:58:47;9.80;99.90
7796;DHT22;3942;51.518;6.912;2022-11-23T01:03:51;9.80;99.90
7796;DHT22;3942;51.518;6.912;2022-11-23T01:08:56;9.80;99.90
7796;DHT22;3942;51.518;6.912;2022-11-23T01:13:58;9.80;99.90
7796;DHT22;3942;51.518;6.912;2022-11-23T01:19:03;9.90;99.90
7796;DHT22;3942;51.518;6.912;2022-11-23T01:24:08;10.00;99.90
7796;DHT22;3942;51.518;6.912;2022-11-23T01:29:10;10.00;99.90
7796;DHT22;3942;51.518;6.912;2022-11-23T01:34:13;9.90;99.90
7796;DHT22;3942;51.518;6.912;2022-11-23T01:39:17;10.00;99.90
7796;DHT22;3942;51.518;6.912;2022-11-23T01:44:24;10.00;99.90
7796;DHT22;3942;51.518;6.912;2022-11-23T01:49:30;10.10;99.90
7796;DHT22;3942;51.518;6.912;2022-11-23T01:54:37;10.10;99.90
7796;DHT22;3942;51.518;6.912;2022-11-23T01:59:40;10.10;99.90
7796;DHT22;3942;51.518;6.912;2022-11-23T02:04:45;10.10;99.90
7796;DHT22;3942;51.518;6.912;2022-11-23T02:09:49;10.00;99.90
7796;DHT22;3942;51.518;6.912;2022-11-23T02:14:51;10.00;99.90
7796;DHT22;3942;51.518;6.912;2022-11-23T02:20:02;10.00;99.90
7796;DHT22;3942;51.518;6.912;2022-11-23T02:25:09;9.90;99.90
7796;DHT22;3942;51.518;6.912;2022-11-23T02:30:15;10.00;99.90
7796;DHT22;3942;51.518;6.912;2022-11-23T02:35:17;9.90;99.90
7796;DHT22;3942;51.518;6.912;2022-11-23T02:40:25;9.90;99.90
7796;DHT22;3942;51.518;6.912;2022-11-23T02:45:33;9.90;99.90
7796;DHT22;3942;51.518;6.912;2022-11-23T02:50:37;9.80;99.90
7796;DHT22;3942;51.518;6.912;2022-11-23T02:55:38;9.80;99.90
7796;DHT22;3942;51.518;6.912;2022-11-23T03:00:42;9.70;99.90
7796;DHT22;3942;51.518;6.912;2022-11-23T03:05:43;9.80;99.90
7796;DHT22;3942;51.518;6.912;2022-11-23T03:10:45;9.70;99.90
7796;DHT22;3942;51.518;6.912;2022-11-23T03:15:48;9.70;99.90
7796;DHT22;3942;51.518;6.912;2022-11-23T03:20:50;9.70;99.90
7796;DHT22;3942;51.518;6.912;2022-11-23T03:25:55;9.70;99.90
7796;DHT22;3942;51.518;6.912;2022-11-23T03:30:59;9.70;99.90
7796;DHT22;3942;51.518;6.912;2022-11-23T03:36:00;9.70;99.90
7796;DHT22;3942;51.518;6.912;2022-11-23T03:41:02;9.70;99.90
7796;DHT22;3942;51.518;6.912;2022-11-23T03:46:06;9.70;99.90
7796;DHT22;3942;51.518;6.912;2022-11-23T03:51:07;9.80;99.90
7796;DHT22;3942;51.518;6.912;2022-11-23T03:56:09;9.80;99.90
7796;DHT22;3942;51.518;6.912;2022-11-23T04:01:12;9.90;99.90
7796;DHT22;3942;51.518;6.912;2022-11-23T04:06:14;9.90;99.90
7796;DHT22;3942;51.518;6.912;2022-11-23T04:11:16;10.00;99.90
7796;DHT22;3942;51.518;6.912;2022-11-23T04:16:19;10.10;99.90
7796;DHT22;3942;51.518;6.912;2022-11-23T04:21:21;10.10;99.90
7796;DHT22;3942;51.518;6.912;2022-11-23T04:26:23;10.10;99.90
7796;DHT22;3942;51.518;6.912;2022-11-23T04:31:26;10.20;99.90
7796;DHT22;3942;51.518;6.912;2022-11-23T04:36:28;10.20;99.90
7796;DHT22;3942;51.518;6.912;2022-11-23T04:41:30;10.10;99.90
7796;DHT22;3942;51.518;6.912;2022-11-23T04:46:33;10.10;99.90
7796;DHT22;3942;51.518;6.912;2022-11-23T04:51:36;10.10;99.90
7796;DHT22;3942;51.518;6.912;2022-11-23T04:56:37;10.10;99.90
7796;DHT22;3942;51.518;6.912;2022-11-23T05:01:41;10.10;99.90
7796;DHT22;3942;51.518;6.912;2022-11-23T05:06:42;10.10;99.90
7796;DHT22;3942;51.518;6.912;2022-11-23T05:11:44;10.20;99.90
7796;DHT22;3942;51.518;6.912;2022-11-23T05:16:47;10.20;99.90
7796;DHT22;3942;51.518;6.912;2022-11-23T05:21:49;10.20;99.90
7796;DHT22;3942;51.518;6.912;2022-11-23T05:26:51;10.20;99.90
7796;DHT22;3942;51.518;6.912;2022-11-23T05:31:54;10.20;99.90
7796;DHT22;3942;51.518;6.912;2022-11-23T05:36:56;10.20;99.90
7796;DHT22;3942;51.518;6.912;2022-11-23T05:41:58;10.20;99.90
7796;DHT22;3942;51.518;6.912;2022-11-23T05:47:01;10.20;99.90
7796;DHT22;3942;51.518;6.912;2022-11-23T05:52:03;10.10;99.90
7796;DHT22;3942;51.518;6.912;2022-11-23T05:57:05;10.10;99.90
7796;DHT22;3942;51.518;6.912;2022-11-23T06:02:08;10.00;99.90
7796;DHT22;3942;51.518;6.912;2022-11-23T06:07:10;10.00;99.90
7796;DHT22;3942;51.518;6.912;2022-11-23T06:12:12;9.90;99.90
7796;DHT22;3942;51.518;6.912;2022-11-23T06:17:15;9.90;99.90
7796;DHT22;3942;51.518;6.912;2022-11-23T06:22:17;9.90;99.90
7796;DHT22;3942;51.518;6.912;2022-11-23T06:27:19;9.90;99.90
7796;DHT22;3942;51.518;6.912;2022-11-23T06:32:22;9.90;99.90
7796;DHT22;3942;51.518;6.912;2022-11-23T06:37:24;10.20;99.90
7796;DHT22;3942;51.518;6.912;2022-11-23T06:42:26;10.00;99.90
7796;DHT22;3942;51.518;6.912;2022-11-23T06:47:29;9.90;99.90
7796;DHT22;3942;51.518;6.912;2022-11-23T06:52:31;9.90;99.90
7796;DHT22;3942;51.518;6.912;2022-11-23T06:57:33;10.00;99.90
7796;DHT22;3942;51.518;6.912;2022-11-23T07:02:36;9.90;99.90
7796;DHT22;3942;51.518;6.912;2022-11-23T07:07:38;9.90;99.90
7796;DHT22;3942;51.518;6.912;2022-11-23T07:12:40;9.80;99.90
7796;DHT22;3942;51.518;6.912;2022-11-23T07:17:43;9.90;99.90
7796;DHT22;3942;51.518;6.912;2022-11-23T07:22:45;9.90;99.90
7796;DHT22;3942;51.518;6.912;2022-11-23T07:27:46;9.80;99.90
7796;DHT22;3942;51.518;6.912;2022-11-23T07:32:50;9.80;99.90
7796;DHT22;3942;51.518;6.912;2022-11-23T07:37:52;9.80;99.90
7796;DHT22;3942;51.518;6.912;2022-11-23T07:42:58;9.80;99.90
7796;DHT22;3942;51.518;6.912;2022-11-23T07:48:04;9.70;99.90
7796;DHT22;3942;51.518;6.912;2022-11-23T07:53:06;9.70;99.90
7796;DHT22;3942;51.518;6.912;2022-11-23T07:58:09;9.60;99.90
7796;DHT22;3942;51.518;6.912;2022-11-23T08:03:13;9.60;99.90
7796;DHT22;3942;51.518;6.912;2022-11-23T08:08:15;9.70;99.90
7796;DHT22;3942;51.518;6.912;2022-11-23T08:13:17;9.60;99.90
7796;DHT22;3942;51.518;6.912;2022-11-23T08:18:21;9.60;99.90
7796;DHT22;3942;51.518;6.912;2022-11-23T08:23:23;9.50;99.90
7796;DHT22;3942;51.518;6.912;2022-11-23T08:28:26;9.50;99.90
7796;DHT22;3942;51.518;6.912;2022-11-23T08:33:29;9.50;99.90
7796;DHT22;3942;51.518;6.912;2022-11-23T08:38:31;9.60;99.90
7796;DHT22;3942;51.518;6.912;2022-11-23T08:43:33;9.50;99.90
7796;DHT22;3942;51.518;6.912;2022-11-23T08:48:36;9.90;99.90
7796;DHT22;3942;51.518;6.912;2022-11-23T08:53:38;10.50;99.90
7796;DHT22;3942;51.518;6.912;2022-11-23T08:58:40;11.30;99.90
7796;DHT22;3942;51.518;6.912;2022-11-23T09:03:43;11.50;99.90
7796;DHT22;3942;51.518;6.912;2022-11-23T09:08:45;11.50;99.90
7796;DHT22;3942;51.518;6.912;2022-11-23T09:13:47;12.10;99.90
7796;DHT22;3942;51.518;6.912;2022-11-23T09:18:54;11.70;99.90
7796;DHT22;3942;51.518;6.912;2022-11-23T09:23:56;12.30;99.90
7796;DHT22;3942;51.518;6.912;2022-11-23T09:28:58;12.00;99.90
7796;DHT22;3942;51.518;6.912;2022-11-23T09:34:01;12.00;99.90
7796;DHT22;3942;51.518;6.912;2022-11-23T09:39:03;12.50;99.90
7796;DHT22;3942;51.518;6.912;2022-11-23T09:44:13;12.90;99.90
7796;DHT22;3942;51.518;6.912;2022-11-23T09:49:21;12.20;99.90
7796;DHT22;3942;51.518;6.912;2022-11-23T09:54:30;12.60;99.90
7796;DHT22;3942;51.518;6.912;2022-11-23T09:59:39;12.90;99.90
7796;DHT22;3942;51.518;6.912;2022-11-23T10:04:43;13.70;99.90
7796;DHT22;3942;51.518;6.912;2022-11-23T10:09:50;12.70;99.90
7796;DHT22;3942;51.518;6.912;2022-11-23T10:15:10;13.70;99.90
7796;DHT22;3942;51.518;6.912;2022-11-23T10:20:30;13.60;99.90
7796;DHT22;3942;51.518;6.912;2022-11-23T10:25:40;14.30;99.90
7796;DHT22;3942;51.518;6.912;2022-11-23T10:30:45;15.00;1.00
7796;DHT22;3942;51.518;6.912;2022-11-23T10:35:50;14.40;1.00
7796;DHT22;3942;51.518;6.912;2022-11-23T10:41:00;12.90;99.90
7796;DHT22;3942;51.518;6.912;2022-11-23T10:46:36;12.80;99.90
7796;DHT22;3942;51.518;6.912;2022-11-23T10:51:48;13.70;1.00
7796;DHT22;3942;51.518;6.912;2022-11-23T10:56:52;14.20;79.20
7796;DHT22;3942;51.518;6.912;2022-11-23T11:02:08;13.60;49.30
7796;DHT22;3942;51.518;6.912;2022-11-23T11:07:22;13.90;1.00
7796;DHT22;3942;51.518;6.912;2022-11-23T11:12:25;12.50;1.00
7796;DHT22;3942;51.518;6.912;2022-11-23T11:17:30;13.10;1.00
7796;DHT22;3942;51.518;6.912;2022-11-23T11:22:34;13.10;1.00
7796;DHT22;3942;51.518;6.912;2022-11-23T11:27:37;13.00;99.90
7796;DHT22;3942;51.518;6.912;2022-11-23T11:32:44;12.70;1.00
7796;DHT22;3942;51.518;6.912;2022-11-23T11:37:56;12.40;1.00
7796;DHT22;3942;51.518;6.912;2022-11-23T11:43:03;12.10;1.00
7796;DHT22;3942;51.518;6.912;2022-11-23T11:48:09;12.20;1.00
7796;DHT22;3942;51.518;6.912;2022-11-23T11:53:18;11.90;52.80
7796;DHT22;3942;51.518;6.912;2022-11-23T11:58:23;11.90;99.90
7796;DHT22;3942;51.518;6.912;2022-11-23T12:03:38;11.50;99.90
7796;DHT22;3942;51.518;6.912;2022-11-23T12:08:46;11.50;99.90
7796;DHT22;3942;51.518;6.912;2022-11-23T12:13:54;11.20;99.90
7796;DHT22;3942;51.518;6.912;2022-11-23T12:19:09;11.10;99.90
7796;DHT22;3942;51.518;6.912;2022-11-23T12:24:19;11.00;1.00
7796;DHT22;3942;51.518;6.912;2022-11-23T12:29:34;10.80;99.90
7796;DHT22;3942;51.518;6.912;2022-11-23T12:35:00;11.00;99.90
7796;DHT22;3942;51.518;6.912;2022-11-23T12:40:26;11.00;1.00
7796;DHT22;3942;51.518;6.912;2022-11-23T12:45:43;10.90;1.00
7796;DHT22;3942;51.518;6.912;2022-11-23T12:50:53;10.70;1.00
7796;DHT22;3942;51.518;6.912;2022-11-23T12:56:05;10.70;1.00
7796;DHT22;3942;51.518;6.912;2022-11-23T13:01:12;10.70;1.00
7796;DHT22;3942;51.518;6.912;2022-11-23T13:06:43;10.70;1.00
7796;DHT22;3942;51.518;6.912;2022-11-23T13:12:06;10.70;1.00
7796;DHT22;3942;51.518;6.912;2022-11-23T13:17:22;10.70;1.00
7796;DHT22;3942;51.518;6.912;2022-11-23T13:22:26;10.60;1.00
7796;DHT22;3942;51.518;6.912;2022-11-23T13:27:40;10.60;99.90
7796;DHT22;3942;51.518;6.912;2022-11-23T13:32:55;10.50;99.90
7796;DHT22;3942;51.518;6.912;2022-11-23T13:38:25;10.40;1.00
7796;DHT22;3942;51.518;6.912;2022-11-23T13:43:30;10.40;1.00
7796;DHT22;3942;51.518;6.912;2022-11-23T13:48:41;10.30;1.00
7796;DHT22;3942;51.518;6.912;2022-11-23T13:53:50;10.20;1.00
7796;DHT22;3942;51.518;6.912;2022-11-23T13:58:55;10.20;78.90
7796;DHT22;3942;51.518;6.912;2022-11-23T14:04:18;10.30;99.90
7796;DHT22;3942;51.518;6.912;2022-11-23T14:09:23;10.20;99.90
7796;DHT22;3942;51.518;6.912;2022-11-23T14:14:34;10.10;99.90
7796;DHT22;3942;51.518;6.912;2022-11-23T14:19:42;10.10;99.90
7796;DHT22;3942;51.518;6.912;2022-11-23T14:25:08;10.00;99.90
7796;DHT22;3942;51.518;6.912;2022-11-23T14:30:32;10.00;1.00
7796;DHT22;3942;51.518;6.912;2022-11-23T14:35:44;9.90;1.00
7796;DHT22;3942;51.518;6.912;2022-11-23T14:40:55;9.80;99.90
7796;DHT22;3942;51.518;6.912;2022-11-23T14:46:04;9.80;1.00
7796;DHT22;3942;51.518;6.912;2022-11-23T14:51:11;9.80;1.00
7796;DHT22;3942;51.518;6.912;2022-11-23T14:56:30;9.80;99.90
7796;DHT22;3942;51.518;6.912;2022-11-23T15:01:35;9.80;99.90
7796;DHT22;3942;51.518;6.912;2022-11-23T15:06:40;9.80;99.90
7796;DHT22;3942;51.518;6.912;2022-11-23T15:11:44;9.90;99.90
7796;DHT22;3942;51.518;6.912;2022-11-23T15:16:49;9.90;99.90
7796;DHT22;3942;51.518;6.912;2022-11-23T15:21:51;10.00;1.00
7796;DHT22;3942;51.518;6.912;2022-11-23T15:26:56;9.90;1.00
7796;DHT22;3942;51.518;6.912;2022-11-23T15:32:02;8.60;45.30
7796;DHT22;3942;51.518;6.912;2022-11-23T15:37:05;9.90;99.90
7796;DHT22;3942;51.518;6.912;2022-11-23T15:42:14;9.90;99.90
7796;DHT22;3942;51.518;6.912;2022-11-23T15:47:20;9.80;99.90
7796;DHT22;3942;51.518;6.912;2022-11-23T15:52:27;9.80;99.90
7796;DHT22;3942;51.518;6.912;2022-11-23T15:57:30;9.80;99.90
7796;DHT22;3942;51.518;6.912;2022-11-23T16:02:34;9.80;99.90
7796;DHT22;3942;51.518;6.912;2022-11-23T16:07:48;9.60;99.90
7796;DHT22;3942;51.518;6.912;2022-11-23T16:12:52;9.70;99.90
7796;DHT22;3942;51.518;6.912;2022-11-23T16:17:55;9.70;99.90
7796;DHT22;3942;51.518;6.912;2022-11-23T16:22:59;9.60;99.90
7796;DHT22;3942;51.518;6.912;2022-11-23T16:28:03;9.60;99.90
7796;DHT22;3942;51.518;6.912;2022-11-23T16:33:12;9.50;99.90
7796;DHT22;3942;51.518;6.912;2022-11-23T16:38:14;9.50;99.90
7796;DHT22;3942;51.518;6.912;2022-11-23T16:43:17;9.50;99.90
7796;DHT22;3942;51.518;6.912;2022-11-23T16:48:40;9.50;99.90
7796;DHT22;3942;51.518;6.912;2022-11-23T16:53:43;9.60;99.90
7796;DHT22;3942;51.518;6.912;2022-11-23T16:58:45;9.70;99.90
7796;DHT22;3942;51.518;6.912;2022-11-23T17:03:49;9.80;99.90
7796;DHT22;3942;51.518;6.912;2022-11-23T17:08:51;9.50;99.90
7796;DHT22;3942;51.518;6.912;2022-11-23T17:13:54;9.50;99.90
7796;DHT22;3942;51.518;6.912;2022-11-23T17:18:58;9.40;99.90
7796;DHT22;3942;51.518;6.912;2022-11-23T17:24:00;9.60;99.90
7796;DHT22;3942;51.518;6.912;2022-11-23T17:29:04;9.50;99.90
7796;DHT22;3942;51.518;6.912;2022-11-23T17:34:10;9.40;99.90
7796;DHT22;3942;51.518;6.912;2022-11-23T17:39:17;9.50;99.90
7796;DHT22;3942;51.518;6.912;2022-11-23T17:44:21;6.30;99.90
7796;DHT22;3942;51.518;6.912;2022-11-23T17:49:24;9.60;99.90
7796;DHT22;3942;51.518;6.912;2022-11-23T17:54:27;9.50;99.90
7796;DHT22;3942;51.518;6.912;2022-11-23T17:59:29;9.50;99.90
7796;DHT22;3942;51.518;6.912;2022-11-23T18:04:33;9.80;99.90
7796;DHT22;3942;51.518;6.912;2022-11-23T18:09:34;9.50;99.90
7796;DHT22;3942;51.518;6.912;2022-11-23T18:14:36;9.40;99.90
7796;DHT22;3942;51.518;6.912;2022-11-23T18:19:40;9.40;99.90
7796;DHT22;3942;51.518;6.912;2022-11-23T18:24:41;9.40;99.90
7796;DHT22;3942;51.518;6.912;2022-11-23T18:29:43;9.40;99.90
7796;DHT22;3942;51.518;6.912;2022-11-23T18:34:46;9.30;99.90
7796;DHT22;3942;51.518;6.912;2022-11-23T18:39:48;9.30;99.90
7796;DHT22;3942;51.518;6.912;2022-11-23T18:44:51;9.40;99.90
7796;DHT22;3942;51.518;6.912;2022-11-23T18:49:54;9.70;99.90
7796;DHT22;3942;51.518;6.912;2022-11-23T18:54:57;9.20;99.90
7796;DHT22;3942;51.518;6.912;2022-11-23T19:00:00;9.20;99.90
7796;DHT22;3942;51.518;6.912;2022-11-23T19:05:04;9.30;99.90
7796;DHT22;3942;51.518;6.912;2022-11-23T19:10:08;9.20;99.90
7796;DHT22;3942;51.518;6.912;2022-11-23T19:15:10;9.00;99.90
7796;DHT22;3942;51.518;6.912;2022-11-23T19:20:15;9.00;99.90
7796;DHT22;3942;51.518;6.912;2022-11-23T19:25:19;9.20;99.90
7796;DHT22;3942;51.518;6.912;2022-11-23T19:30:20;9.20;99.90
7796;DHT22;3942;51.518;6.912;2022-11-23T19:35:24;9.20;99.90
7796;DHT22;3942;51.518;6.912;2022-11-23T19:40:26;9.20;99.90
7796;DHT22;3942;51.518;6.912;2022-11-23T19:45:28;9.20;99.90
7796;DHT22;3942;51.518;6.912;2022-11-23T19:50:32;9.30;99.90
7796;DHT22;3942;51.518;6.912;2022-11-23T19:55:34;9.40;99.90
7796;DHT22;3942;51.518;6.912;2022-11-23T20:00:36;9.60;99.90
7796;DHT22;3942;51.518;6.912;2022-11-23T20:05:54;9.80;99.90
7796;DHT22;3942;51.518;6.912;2022-11-23T20:16:01;9.30;99.90
7796;DHT22;3942;51.518;6.912;2022-11-23T20:21:09;9.40;99.90
7796;DHT22;3942;51.518;6.912;2022-11-23T20:26:12;9.40;99.90
7796;DHT22;3942;51.518;6.912;2022-11-23T20:31:16;9.40;99.90
7796;DHT22;3942;51.518;6.912;2022-11-23T20:36:21;9.60;99.90
7796;DHT22;3942;51.518;6.912;2022-11-23T20:41:24;9.40;99.90
7796;DHT22;3942;51.518;6.912;2022-11-23T20:46:28;9.40;99.90
7796;DHT22;3942;51.518;6.912;2022-11-23T20:51:31;9.40;99.90
7796;DHT22;3942;51.518;6.912;2022-11-23T20:56:33;9.40;99.90
7796;DHT22;3942;51.518;6.912;2022-11-23T21:01:35;9.50;99.90
7796;DHT22;3942;51.518;6.912;2022-11-23T21:06:41;9.20;99.90
7796;DHT22;3942;51.518;6.912;2022-11-23T21:11:43;9.30;99.90
7796;DHT22;3942;51.518;6.912;2022-11-23T21:17:02;9.40;99.90
7796;DHT22;3942;51.518;6.912;2022-11-23T21:22:07;9.30;99.90
7796;DHT22;3942;51.518;6.912;2022-11-23T21:27:11;9.30;99.90
7796;DHT22;3942;51.518;6.912;2022-11-23T21:32:13;9.40;99.90
7796;DHT22;3942;51.518;6.912;2022-11-23T21:37:16;9.40;99.90
7796;DHT22;3942;51.518;6.912;2022-11-23T21:42:18;9.20;99.90
7796;DHT22;3942;51.518;6.912;2022-11-23T21:47:20;9.30;99.90
7796;DHT22;3942;51.518;6.912;2022-11-23T21:52:23;9.30;99.90
7796;DHT22;3942;51.518;6.912;2022-11-23T21:57:25;9.50;99.90
7796;DHT22;3942;51.518;6.912;2022-11-23T22:02:27;9.20;99.90
7796;DHT22;3942;51.518;6.912;2022-11-23T22:07:33;9.20;99.90
7796;DHT22;3942;51.518;6.912;2022-11-23T22:12:35;9.20;99.90
7796;DHT22;3942;51.518;6.912;2022-11-23T22:17:37;9.10;99.90
7796;DHT22;3942;51.518;6.912;2022-11-23T22:22:40;9.20;99.90
7796;DHT22;3942;51.518;6.912;2022-11-23T22:27:42;9.20;99.90
7796;DHT22;3942;51.518;6.912;2022-11-23T22:32:44;9.10;99.90
7796;DHT22;3942;51.518;6.912;2022-11-23T22:37:47;9.10;99.90
7796;DHT22;3942;51.518;6.912;2022-11-23T22:42:49;9.10;99.90
7796;DHT22;3942;51.518;6.912;2022-11-23T22:47:51;9.10;99.90
7796;DHT22;3942;51.518;6.912;2022-11-23T22:52:55;9.10;99.90
7796;DHT22;3942;51.518;6.912;2022-11-23T22:57:56;9.20;99.90
7796;DHT22;3942;51.518;6.912;2022-11-23T23:02:58;9.10;99.90
7796;DHT22;3942;51.518;6.912;2022-11-23T23:08:02;9.10;99.90
7796;DHT22;3942;51.518;6.912;2022-11-23T23:13:05;9.20;99.90
7796;DHT22;3942;51.518;6.912;2022-11-23T23:18:07;9.20;99.90
7796;DHT22;3942;51.518;6.912;2022-11-23T23:23:11;9.40;99.90
7796;DHT22;3942;51.518;6.912;2022-11-23T23:28:13;9.40;99.90
7796;DHT22;3942;51.518;6.912;2022-11-23T23:33:15;9.40;99.90
7796;DHT22;3942;51.518;6.912;2022-11-23T23:38:19;9.40;99.90
7796;DHT22;3942;51.518;6.912;2022-11-23T23:43:21;9.40;99.90
7796;DHT22;3942;51.518;6.912;2022-11-23T23:48:23;9.40;99.90
7796;DHT22;3942;51.518;6.912;2022-11-23T23:53:28;9.40;99.90
7796;DHT22;3942;51.518;6.912;2022-11-23T23:58:30;9.30;99.90
